Tiempo atmosférico en la estación meteorológica de Sos del Rey Católico, Zaragoza (630 m.)



Fecha
DESCASC
Temp. máxima en grados centígrados (hora)
DESCASC
Temp. mínima en grados centígrados (hora)
DESCASC
Temp. media en grados centígrados
DESCASC
Racha de viento máxima en m/sg (hora)
DESCASC
Velocidad máxima media en intervalos de 10 minutos(hora)
DESCASC
Precipitaciones diarias en mm
DESCASC
Precipitaciones de 00:00 a 06:00 en mm
DESCASC
Precipitaciones de 06:00 a 12:00 en mm
DESCASC
Precipitaciones de 12:00 a 18:00 en mm
DESCASC
Precipitaciones de 18:00 a 24:00 en mm
DESCASC
15-08-2019 25.2 (16:10) 16.3 (23:59) 20.8 10.83 (16:50) 6.39 (19:10) 0 0 0 0 0
14-08-2019 28.1 (16:30) 10.7 (00:00) 19.4 9.17 (19:20) 5.83 (19:20) 0 0 0 0 0
13-08-2019 23.1 (15:40) 13.2 (00:00) 18.2 10 (02:00) 6.11 (02:00) 0 0 0 0 0
12-08-2019 21.1 (14:10) 14 (00:00) 17.6 15 (16:30) 7.78 (18:40) 0 0 0 0 0
11-08-2019 26 (15:20) 17 (00:00) 21.5 9.72 (18:30) 5.56 (18:30) 0.2 0 0.2 0 0
10-08-2019 27.5 (18:10) 14.5 (00:00) 21 7.78 (19:10) 3.89 (19:00) 0.1 0 0 0 0.1
09-08-2019 33.3 (16:10) 20 (00:00) 26.6 9.72 (15:20) 5.28 (01:10) 2.7 0 0 0 2.7
08-08-2019 32.2 (17:10) 18.1 (00:00) 25.2 8.33 (23:20) 3.89 (23:30) 0 0 0 0 0
07-08-2019 30.6 (15:40) 18.3 (00:00) 24.4 7.22 (02:00) 3.89 (00:30) 0.2 0 0 0 0.2
06-08-2019 33.1 (17:30) 16.1 (00:00) 24.6 8.33 (15:40) 3.89 (23:30) 0 0 0 0 0
05-08-2019 33.5 (18:40) 15.7 (00:00) 24.6 7.22 (14:20) 3.61 (19:30) 0 0 0 0 0
04-08-2019 34.2 (17:40) 17.3 (00:00) 25.8 9.17 (19:20) 5 (19:00) 0 0 0 0 0
03-08-2019 33.8 (18:00) 14.2 (00:00) 24 8.33 (21:00) 4.44 (20:30) 0 0 0 0 0
02-08-2019 30.1 (17:10) 16 (00:00) 23.1 7.5 (20:40) 4.17 (20:50) 0 0 0 0 0
01-08-2019 29.9 (18:00) 15.6 (00:00) 22.8 8.61 (20:00) 4.72 (19:20) 0.5 0.3 0.2 0 0
31-07-2019 28 (17:10) 10 (00:00) 19 6.94 (17:30) 3.89 (17:30) 0 0 0 0 0
30-07-2019 22.6 (14:40) 14.8 (00:00) 18.7 11.39 (10:30) 6.67 (19:20) 0 0 0 0 0
29-07-2019 30.8 (17:40) 11.3 (00:00) 21 11.11 (19:50) 6.39 (20:10) 0 0 0 0 0
28-07-2019 23.6 (17:30) 13.4 (00:00) 18.5 10.28 (03:10) 6.11 (03:10) 0 0 0 0 0
27-07-2019 20.2 (14:50) 14.6 (00:00) 17.4 10 (17:30) 5.56 (20:00) 0.1 0 0.1 0 0
26-07-2019 27 (14:40) 17.3 (00:00) 22.1 9.17 (18:20) 5.28 (11:50) 1.7 0 1.4 0 0.3
25-07-2019 -- (--) -- (--) -- 11.67 (18:40) 6.94 (18:40) 0.8 0 0 0 0.8
24-07-2019 -- (--) -- (--) -- 11.39 (01:20) 5.56 (23:40) 0 0 0 0 0
23-07-2019 -- (--) -- (--) -- 10 (16:20) 5 (22:00) 0.1 0.1 0 0 0
22-07-2019 35.2 (17:00) 18 (00:00) 26.6 8.33 (17:10) 4.17 (16:50) 0 0 0 0 0
21-07-2019 32.9 (16:40) 15.9 (00:00) 24.4 6.94 (13:40) 3.33 (12:30) 0 0 0 0 0
20-07-2019 33.7 (18:00) 18.7 (07:10) 26.2 9.44 (00:10) 5.28 (00:10) 0.2 0.1 0.1 0 0
19-07-2019 31.9 (17:50) 11.5 (00:00) 21.7 10.83 (23:30) 6.11 (23:30) 0 0 0 0 0

Gráficas

Temp. máximas Temp. mínimas Temp. medias Precipitaciones Rachas de viento máximas Velocidades máximas media en intervalos de 10 minutos

Datos horarios

Fecha y hora oficial Temperatura (ºC) Velocidad del viento (km/h) Dirección del viento Racha (km/h) Dirección de racha Precipitación (mm) Presión (hPa) Tendencia (hPa) Humedad (%)
2019-08-17 23:00:00 27.4 15 Sur 32 Sur 0 -- -- 43
2019-08-17 22:00:00 25.2 7 Sur 12 Sudoeste 0 -- -- 37
2019-08-17 21:00:00 28.6 7 Sudoeste 11 Sudoeste 0 -- -- 28
2019-08-17 20:00:00 32.6 4 Sudoeste 17 Oeste 0 -- -- 24
2019-08-17 19:00:00 33.4 7 Sudoeste 22 Sudoeste 0 -- -- 23
2019-08-17 18:00:00 33.6 8 Sudoeste 21 Sudoeste 0 -- -- 21
2019-08-17 17:00:00 33.8 8 Sudoeste 19 Sudoeste 0 -- -- 22
2019-08-17 16:00:00 33.4 9 Sudoeste 25 Sudoeste 0 -- -- 23
2019-08-17 15:00:00 32.4 11 Sudoeste 21 Sudoeste 0 -- -- 27
2019-08-17 14:00:00 31.7 11 Sudoeste 28 Sudoeste 0 -- -- 30
2019-08-17 13:00:00 30.3 9 Sur 22 Sudoeste 0 -- -- 34
2019-08-17 12:00:00 28.5 8 Sudoeste 22 Sudoeste 0 -- -- 39
2019-08-17 11:00:00 26.6 9 Sudoeste 20 Sudoeste 0 -- -- 46
2019-08-17 10:00:00 23.5 6 Sur 9 Sur 0 -- -- 54
2019-08-17 09:00:00 20.9 5 Sur 7 Sudoeste 0 -- -- 68
2019-08-17 08:00:00 17.9 0 Calma 9 Sudoeste 0 -- -- 81
2019-08-17 07:00:00 17.2 4 Sur 6 Sudoeste 0 -- -- 81
2019-08-17 06:00:00 17.4 2 Sudoeste 6 Sudoeste 0 -- -- 78
2019-08-17 05:00:00 17.7 2 Sudoeste 10 Sudoeste 0 -- -- 78
2019-08-17 04:00:00 18.3 4 Sur 6 Sudoeste 0 -- -- 76
2019-08-17 03:00:00 19 3 Sur 5 Sur 0 -- -- 70
2019-08-17 02:00:00 19.8 0 Calma 9 Sudoeste 0 -- -- 62
2019-08-17 01:00:00 20.5 4 Sudoeste 6 Sudoeste 0 -- -- 56
2019-08-17 00:00:00 21.5 5 Sudoeste 7 Sur 0 -- -- 48
2019-08-16 23:00:00 22.4 4 Sur 9 Sudoeste 0 -- -- 40
2019-08-16 22:00:00 24.5 3 Sudoeste 12 Sudoeste 0 -- -- 36
2019-08-16 21:00:00 27 6 Sudoeste 9 Sudoeste 0 -- -- 30
2019-08-16 20:00:00 30.4 4 Sur 13 Sudoeste 0 -- -- 26
2019-08-16 19:00:00 31 6 Sur 17 Sur 0 -- -- 25
2019-08-16 18:00:00 31.1 8 Sur 18 Sur 0 -- -- 25
2019-08-16 17:00:00 31.3 4 Sudoeste 15 Sudoeste 0 -- -- 25
2019-08-16 16:00:00 30.7 5 Sudoeste 15 Sudoeste 0 -- -- 26
2019-08-16 15:00:00 29.7 4 Sudoeste 18 Sudoeste 0 -- -- 28
2019-08-16 14:00:00 28.1 9 Sudoeste 15 Sur 0 -- -- 30
2019-08-16 13:00:00 26 8 Sudoeste 15 Sudoeste 0 -- -- 34
2019-08-16 12:00:00 23.7 4 Sudoeste 10 Sudoeste 0 -- -- 39
2019-08-16 11:00:00 20.7 3 Sudoeste 9 Sur 0 -- -- 47
2019-08-16 10:00:00 18 5 Sudoeste 8 Sudoeste 0 -- -- 58
2019-08-16 09:00:00 15.6 0 Calma 5 Sudoeste 0 -- -- 72
2019-08-16 08:00:00 11.4 0 Calma 7 Sur 0 -- -- 88
2019-08-16 07:00:00 10.2 3 Sudoeste 10 Sudoeste 0 -- -- 87
2019-08-16 06:00:00 10.6 4 Sur 9 Sudoeste 0 -- -- 87
2019-08-16 05:00:00 10.8 0 Calma 5 Sudoeste 0 -- -- 84
2019-08-16 04:00:00 11.8 0 Calma 5 Sudoeste 0 -- -- 80
2019-08-16 03:00:00 13.5 0 Calma 6 Sudoeste 0 -- -- 74
2019-08-16 02:00:00 14.8 3 Sudoeste 18 Sudoeste 0 -- -- 68
2019-08-16 01:00:00 15.8 6 Sudoeste 15 Sudoeste 0 -- -- 62
2019-08-16 00:00:00 16.3 3 Sudoeste 20 Sudoeste 0 -- -- 58
2019-08-15 23:00:00 17.1 9 Sudoeste 23 Sudoeste 0 -- -- 55
2019-08-15 22:00:00 17.9 9 Sudoeste 33 Sudoeste 0 -- -- 54
2019-08-15 21:00:00 19 18 Sur 32 Sudoeste 0 -- -- 49
2019-08-15 20:00:00 20.8 17 Sudoeste 39 Sur 0 -- -- 45
2019-08-15 19:00:00 22.6 19 Sudoeste 37 Sudoeste 0 -- -- 42
2019-08-15 18:00:00 23.7 20 Sudoeste 36 Sudoeste 0 -- -- 40
2019-08-15 17:00:00 24.3 21 Sudoeste 39 Sur 0 -- -- 38
2019-08-15 16:00:00 24.6 17 Sudoeste 32 Sudoeste 0 -- -- 36
2019-08-15 15:00:00 23.8 18 Sudoeste 31 Sur 0 -- -- 40
2019-08-15 14:00:00 23.6 14 Sudoeste 31 Sudoeste 0 -- -- 40
2019-08-15 13:00:00 22.8 14 Sudoeste 33 Sur 0 -- -- 47
2019-08-15 12:00:00 23.1 14 Sudoeste 29 Sudoeste 0 -- -- 50
2019-08-15 11:00:00 21.3 15 Sur 27 Sur 0 -- -- 61
2019-08-15 10:00:00 20.9 12 Sudoeste 22 Sur 0 -- -- 62
2019-08-15 09:00:00 19.5 9 Sudoeste 21 Sudoeste 0 -- -- 71
2019-08-15 08:00:00 18.1 10 Sudoeste 19 Sudoeste 0 -- -- 80
2019-08-15 07:00:00 17.7 8 Sudoeste 21 Sur 0 -- -- 78
2019-08-15 06:00:00 18 8 Sudoeste 19 Sudoeste 0 -- -- 78
2019-08-15 05:00:00 18.2 9 Sudoeste 14 Sudoeste 0 -- -- 79
2019-08-15 04:00:00 18.3 7 Sudoeste 16 Sudoeste 0 -- -- 78
2019-08-15 03:00:00 18.3 6 Sudoeste 21 Sudoeste 0 -- -- 76
2019-08-15 02:00:00 19 10 Sudoeste 18 Sudoeste 0 -- -- 72
2019-08-15 01:00:00 18.8 5 Sudoeste 23 Sudoeste 0 -- -- 71
2019-08-15 00:00:00 19.5 15 Sudoeste 27 Sudoeste 0 -- -- 66
2019-08-14 23:00:00 20.4 18 Sudoeste 31 Sudoeste 0 -- -- 60
2019-08-14 22:00:00 21.5 12 Sudoeste 23 Sudoeste 0 -- -- 51
2019-08-14 21:00:00 22.8 14 Sudoeste 33 Sur 0 -- -- 42
2019-08-14 20:00:00 24.4 17 Sudoeste 33 Sudoeste 0 -- -- 37
2019-08-14 19:00:00 25.6 19 Sudoeste 31 Sur 0 -- -- 34
2019-08-14 18:00:00 27.4 14 Sur 31 Sur 0 -- -- 31
2019-08-14 17:00:00 27.7 12 Sudoeste 31 Sur 0 -- -- 29
2019-08-14 16:00:00 27.1 14 Sudoeste 30 Sudoeste 0 -- -- 28
2019-08-14 15:00:00 26.8 12 Sudoeste 23 Sudoeste 0 -- -- 27
2019-08-14 14:00:00 26.5 6 Sudoeste 18 Sudoeste 0 -- -- 28
2019-08-14 13:00:00 25.3 9 Sudoeste 16 Sur 0 -- -- 26
2019-08-14 12:00:00 23.5 7 Sur 12 Sur 0 -- -- 32
2019-08-14 11:00:00 20.3 4 Sudoeste 10 Sudoeste 0 -- -- 47
2019-08-14 10:00:00 17.7 5 Sudoeste 9 Sudoeste 0 -- -- 58
2019-08-14 09:00:00 15.4 0 Calma 9 Sur 0 -- -- 69
2019-08-14 08:00:00 12.2 0 Calma 3 Sudoeste 0 -- -- 82
2019-08-14 07:00:00 11.2 4 Sudoeste 7 Sudoeste 0 -- -- 80
2019-08-14 06:00:00 12.1 0 Calma 7 Sudoeste 0 -- -- 79
2019-08-14 05:00:00 11.5 3 Sudoeste 7 Sudoeste 0 -- -- 79
2019-08-14 04:00:00 12.7 0 Calma 10 Sudoeste 0 -- -- 75
2019-08-14 03:00:00 13.3 3 Sudoeste 10 Sudoeste 0 -- -- 73
2019-08-14 02:00:00 13.3 2 Sudoeste 7 Sudoeste 0 -- -- 69
2019-08-14 01:00:00 14.7 4 Sudoeste 18 Sudoeste 0 -- -- 64
2019-08-14 00:00:00 15.8 9 Sudoeste 20 Sudoeste 0 -- -- 60
2019-08-13 23:00:00 16.4 12 Sudoeste 27 Sudoeste 0 -- -- 59
2019-08-13 22:00:00 17.1 13 Sudoeste 30 Sur 0 -- -- 54
2019-08-13 21:00:00 18.3 18 Sudoeste 30 Sudoeste 0 -- -- 47
2019-08-13 20:00:00 19.7 13 Sudoeste 35 Sudoeste 0 -- -- 42
2019-08-13 19:00:00 20.8 17 Sudoeste 29 Sudoeste 0 -- -- 39
2019-08-13 18:00:00 21.6 14 Sur 32 Sudoeste 0 -- -- 36
2019-08-13 17:00:00 22.2 16 Sudoeste 34 Sudoeste 0 -- -- 37
2019-08-13 16:00:00 22.9 11 Sudoeste 27 Sur 0 -- -- 36
2019-08-13 15:00:00 22 10 Sudoeste 27 Sur 0 -- -- 35
2019-08-13 14:00:00 21 12 Sudoeste 28 Sudoeste 0 -- -- 37
2019-08-13 13:00:00 21 11 Sur 24 Sudoeste 0 -- -- 38
2019-08-13 12:00:00 19.1 11 Sudoeste 25 Sudoeste 0 -- -- 44
2019-08-13 11:00:00 17.3 9 Sudoeste 18 Sudoeste 0 -- -- 51
2019-08-13 10:00:00 15 9 Sudoeste 16 Sudoeste 0 -- -- 59
2019-08-13 09:00:00 14.1 10 Sudoeste 19 Sudoeste 0 -- -- 63
2019-08-13 08:00:00 13.5 11 Sudoeste 19 Sudoeste 0 -- -- 66
2019-08-13 07:00:00 13.4 11 Sudoeste 23 Sur 0 -- -- 68
2019-08-13 06:00:00 13.5 13 Sudoeste 27 Sudoeste 0 -- -- 67
2019-08-13 05:00:00 13.9 17 Sudoeste 28 Sudoeste 0 -- -- 65
2019-08-13 04:00:00 14.3 15 Sudoeste 31 Sudoeste 0 -- -- 67
2019-08-13 03:00:00 14.2 14 Sudoeste 31 Sudoeste 0 -- -- 69
2019-08-13 02:00:00 14 22 Sudoeste 36 Sudoeste 0 -- -- 69
2019-08-13 01:00:00 13.9 16 Sudoeste 34 Sudoeste 0 -- -- 69
2019-08-13 00:00:00 14 20 Sudoeste 36 Sudoeste 0 -- -- 72
2019-08-12 23:00:00 14.8 18 Sudoeste 37 Sudoeste 0 -- -- 64
2019-08-12 22:00:00 15.2 19 Sudoeste 35 Sur 0 -- -- 63
2019-08-12 21:00:00 16.4 15 Sudoeste 38 Sudoeste 0 -- -- 56
2019-08-12 20:00:00 17.4 20 Sudoeste 42 Sudoeste 0 -- -- 50
2019-08-12 19:00:00 18.7 24 Sudoeste 49 Sudoeste 0 -- -- 45
2019-08-12 18:00:00 19.6 20 Sudoeste 50 Sudoeste 0 -- -- 41
2019-08-12 17:00:00 20.1 26 Sudoeste 54 Sudoeste 0 -- -- 41
2019-08-12 16:00:00 20.6 25 Noroeste 45 Noroeste 0 -- -- 42
2019-08-12 15:00:00 21 21 Sudoeste 45 Sur 0 -- -- 42
2019-08-12 14:00:00 20.8 19 Sur 41 Sudoeste 0 -- -- 43
2019-08-12 13:00:00 19.4 25 Sudoeste 43 Sur 0 -- -- 47
2019-08-12 12:00:00 18.9 21 Sur 40 Sur 0 -- -- 49
2019-08-12 11:00:00 18.2 18 Sur 39 Sudoeste 0 -- -- 55
2019-08-12 10:00:00 16.4 17 Sudoeste 36 Sudoeste 0 -- -- 65
2019-08-12 09:00:00 16 17 Sudoeste 34 Sudoeste 0 -- -- 67
2019-08-12 08:00:00 15.4 17 Sudoeste 33 Sudoeste 0 -- -- 73
2019-08-12 07:00:00 15.2 16 Sudoeste 32 Sudoeste 0 -- -- 73
2019-08-12 06:00:00 15.2 17 Sudoeste 32 Sur 0 -- -- 74
2019-08-12 05:00:00 15.5 17 Sudoeste 33 Sudoeste 0 -- -- 75
2019-08-12 04:00:00 15.7 16 Sudoeste 32 Sur 0 -- -- 75
2019-08-12 03:00:00 15.9 12 Sudoeste 22 Sur 0 -- -- 74
2019-08-12 02:00:00 16.3 13 Sudoeste 25 Sudoeste 0 -- -- 72
2019-08-12 01:00:00 16.9 10 Sudoeste 24 Sur 0 -- -- 67
2019-08-12 00:00:00 17.6 9 Sudoeste 23 Sudoeste 0 -- -- 62
2019-08-11 23:00:00 18.1 11 Sudoeste 26 Sudoeste 0 -- -- 58
2019-08-11 22:00:00 19 15 Sudoeste 28 Sudoeste 0 -- -- 54
2019-08-11 21:00:00 19.8 17 Sudoeste 32 Sudoeste 0 -- -- 50
2019-08-11 20:00:00 20.7 17 Sudoeste 35 Sudoeste 0 -- -- 47
2019-08-11 19:00:00 22.2 19 Sudoeste 35 Sur 0 -- -- 42
2019-08-11 18:00:00 24.4 16 Noroeste 33 Norte 0 -- -- 37
2019-08-11 17:00:00 25.1 16 Norte 30 Norte 0 -- -- 35
2019-08-11 16:00:00 25.5 13 Noroeste 25 Norte 0 -- -- 37
2019-08-11 15:00:00 25.8 13 Noroeste 24 Norte 0 -- -- 38
2019-08-11 14:00:00 24 10 Noroeste 21 Noroeste 0 -- -- 41
2019-08-11 13:00:00 24.4 9 Noroeste 20 Noroeste 0 -- -- 46
2019-08-11 12:00:00 22.4 7 Noroeste 17 Noroeste 0 -- -- 54
2019-08-11 11:00:00 19.7 10 Noroeste 20 Noroeste 0 -- -- 67
2019-08-11 10:00:00 17.4 7 Noroeste 12 Oeste 0.2 -- -- 82
2019-08-11 09:00:00 17.7 5 Noroeste 10 Noroeste 0 -- -- 76
2019-08-11 08:00:00 17.8 2 Oeste 10 Noroeste 0 -- -- 78
2019-08-11 07:00:00 17.6 0 Calma 15 Noroeste 0 -- -- 80
2019-08-11 06:00:00 17.5 5 Noroeste 12 Noroeste 0 -- -- 81
2019-08-11 05:00:00 17.3 6 Oeste 13 Noroeste 0 -- -- 81
2019-08-11 04:00:00 17.6 3 Noroeste 12 Noroeste 0 -- -- 81
2019-08-11 03:00:00 17.5 7 Noroeste 13 Noroeste 0 -- -- 81
2019-08-11 02:00:00 17.6 3 Noroeste 11 Oeste 0 -- -- 79
2019-08-11 01:00:00 18 4 Noroeste 13 Noroeste 0 -- -- 77
2019-08-11 00:00:00 18.7 7 Noroeste 15 Noroeste 0.1 -- -- 75
2019-08-10 23:00:00 20.4 5 Noroeste 15 Noroeste 0 -- -- 62
2019-08-10 22:00:00 21.4 6 Noroeste 16 Noroeste 0 -- -- 55
2019-08-10 21:00:00 22.5 8 Noroeste 24 Noroeste 0 -- -- 49
2019-08-10 20:00:00 24.6 10 Noroeste 28 Noroeste 0 -- -- 42
2019-08-10 19:00:00 25.5 14 Noroeste 27 Noroeste 0 -- -- 38
2019-08-10 18:00:00 27.2 6 Noroeste 17 Norte 0 -- -- 30
2019-08-10 17:00:00 26.8 10 Noroeste 18 Noroeste 0 -- -- 32
2019-08-10 16:00:00 26.5 9 Noroeste 21 Noroeste 0 -- -- 35
2019-08-10 15:00:00 24.5 7 Norte 22 Norte 0 -- -- 39
2019-08-10 14:00:00 25 10 Noroeste 24 Norte 0 -- -- 41
2019-08-10 13:00:00 24 7 Noroeste 16 Norte 0 -- -- 52
2019-08-10 12:00:00 22.1 8 Noroeste 14 Norte 0 -- -- 63
2019-08-10 11:00:00 20.6 5 Noroeste 10 Noroeste 0 -- -- 73
2019-08-10 10:00:00 17.6 2 Sudoeste 8 Sudoeste 0 -- -- 87
2019-08-10 09:00:00 16.8 0 Calma 5 Oeste 0 -- -- 88
2019-08-10 08:00:00 15.5 0 Calma 8 Sudoeste 0 -- -- 89
2019-08-10 07:00:00 14.7 5 Sur 9 Sudoeste 0 -- -- 89
2019-08-10 06:00:00 14.9 0 Calma 4 Sudoeste 0 -- -- 88
2019-08-10 05:00:00 15.5 0 Calma 7 Noroeste 0 -- -- 88
2019-08-10 04:00:00 16 2 Sur 6 Noroeste 0 -- -- 87
2019-08-10 03:00:00 16.8 2 Sur 10 Sudoeste 0 -- -- 87
2019-08-10 02:00:00 17.5 3 Sur 8 Sudoeste 0 -- -- 85
2019-08-10 01:00:00 19.1 3 Noroeste 10 Sudoeste 0 -- -- 78
2019-08-10 00:00:00 20 4 Sur 19 Noroeste 0 -- -- 72
2019-08-09 23:00:00 21.2 7 Noroeste 22 Sudoeste 0.1 -- -- 63
2019-08-09 22:00:00 21.9 7 Sudoeste 15 Norte 0.1 -- -- 82
2019-08-09 21:00:00 23.1 2 Sur 32 Sudoeste 1.2 -- -- 80
2019-08-09 20:00:00 26.4 15 Sudoeste 27 Sudoeste 1.3 -- -- 48
2019-08-09 19:00:00 31.2 7 Noroeste 21 Noroeste 0 -- -- 33
2019-08-09 18:00:00 32.5 6 Sudoeste 17 Sudoeste 0 -- -- 31
2019-08-09 17:00:00 32.9 6 Oeste 27 Sur 0 -- -- 30
2019-08-09 16:00:00 32.8 10 Sudoeste 35 Sudoeste 0 -- -- 31
2019-08-09 15:00:00 32.7 9 Sudoeste 26 Sudoeste 0 -- -- 31
2019-08-09 14:00:00 31.8 14 Sudoeste 30 Sudoeste 0 -- -- 31
2019-08-09 13:00:00 31.2 9 Sudoeste 28 Sur 0 -- -- 32
2019-08-09 12:00:00 30.3 9 Sudoeste 26 Sur 0 -- -- 35
2019-08-09 11:00:00 28.9 13 Sur 28 Sudoeste 0 -- -- 38
2019-08-09 10:00:00 27.9 11 Sur 24 Sur 0 -- -- 41
2019-08-09 09:00:00 26.8 13 Sur 26 Sur 0 -- -- 43
2019-08-09 08:00:00 25.2 9 Sur 20 Sur 0 -- -- 47
2019-08-09 07:00:00 24.3 8 Sur 16 Sudoeste 0 -- -- 48
2019-08-09 06:00:00 24.8 6 Sur 26 Sur 0 -- -- 47
2019-08-09 05:00:00 25.3 12 Sur 23 Sur 0 -- -- 46
2019-08-09 04:00:00 26 11 Sur 20 Sur 0 -- -- 44
2019-08-09 03:00:00 26.5 10 Sur 22 Sur 0 -- -- 43
2019-08-09 02:00:00 27.8 16 Sur 32 Sudoeste 0 -- -- 40
2019-08-09 01:00:00 27.8 18 Sur 33 Sur 0 -- -- 39
2019-08-09 00:00:00 27.7 13 Sur 30 Sur 0 -- -- 38
2019-08-08 23:00:00 27.7 10 Sur 19 Sur 0 -- -- 39
2019-08-08 22:00:00 27 9 Sudoeste 12 Sudoeste 0 -- -- 39
2019-08-08 21:00:00 29.4 4 Sur 14 Sur 0 -- -- 35
2019-08-08 20:00:00 31.4 5 Sudoeste 19 Sudoeste 0 -- -- 32
2019-08-08 19:00:00 31.6 6 Oeste 23 Sudoeste 0 -- -- 31
2019-08-08 18:00:00 31.8 11 Sudoeste 19 Sudoeste 0 -- -- 31
2019-08-08 17:00:00 32 5 Oeste 19 Sudoeste 0 -- -- 31
2019-08-08 16:00:00 31.1 10 Sudoeste 23 Oeste 0 -- -- 32
2019-08-08 15:00:00 30.7 5 Sudoeste 24 Sudoeste 0 -- -- 34
2019-08-08 14:00:00 29.8 9 Sudoeste 26 Oeste 0 -- -- 37
2019-08-08 13:00:00 28.5 9 Sudoeste 21 Oeste 0 -- -- 37
2019-08-08 12:00:00 27.4 11 Sudoeste 23 Sudoeste 0 -- -- 39
2019-08-08 11:00:00 25.7 9 Sudoeste 19 Sudoeste 0 -- -- 44
2019-08-08 10:00:00 25.8 9 Sudoeste 16 Sudoeste 0 -- -- 45
2019-08-08 09:00:00 24 5 Noroeste 10 Noroeste 0 -- -- 55
2019-08-08 08:00:00 20.2 0 Calma 11 Sudoeste 0 -- -- 65
2019-08-08 07:00:00 18.2 5 Sur 10 Sudoeste 0 -- -- 69
2019-08-08 06:00:00 19.1 4 Sur 10 Sudoeste 0 -- -- 68
2019-08-08 05:00:00 20.5 0 Calma 5 Sur 0 -- -- 62
2019-08-08 04:00:00 22 0 Calma 9 Norte 0 -- -- 55
2019-08-08 03:00:00 22.6 6 Noroeste 17 Norte 0 -- -- 55
2019-08-08 02:00:00 21.8 4 Sur 8 Sudoeste 0 -- -- 63
2019-08-08 01:00:00 22.3 0 Calma 6 Sudoeste 0 -- -- 60
2019-08-08 00:00:00 21.7 3 Sudoeste 8 Sudoeste 0 -- -- 60
2019-08-07 23:00:00 21.8 4 Sur 13 Sudoeste 0 -- -- 59
2019-08-07 22:00:00 22.9 8 Sudoeste 12 Sudoeste 0.1 -- -- 58
2019-08-07 21:00:00 24.5 6 Sur 17 Sudoeste 0.1 -- -- 47
2019-08-07 20:00:00 27.1 7 Sur 19 Sur 0 -- -- 38
2019-08-07 19:00:00 28.1 6 Oeste 14 Oeste 0 -- -- 35
2019-08-07 18:00:00 28.4 7 Sudoeste 19 Sudoeste 0 -- -- 34
2019-08-07 17:00:00 28.9 10 Sudoeste 20 Noroeste 0 -- -- 31
2019-08-07 16:00:00 29.7 8 Noroeste 21 Noroeste 0 -- -- 29
2019-08-07 15:00:00 29 10 Noroeste 21 Noroeste 0 -- -- 32
2019-08-07 14:00:00 28.4 12 Noroeste 19 Noroeste 0 -- -- 34
2019-08-07 13:00:00 27.6 8 Noroeste 22 Noroeste 0 -- -- 35
2019-08-07 12:00:00 25.7 6 Noroeste 16 Norte 0 -- -- 45
2019-08-07 11:00:00 23.5 4 Noroeste 14 Norte 0 -- -- 55
2019-08-07 10:00:00 22 5 Noroeste 12 Norte 0 -- -- 63
2019-08-07 09:00:00 20 3 Noroeste 7 Noroeste 0 -- -- 76
2019-08-07 08:00:00 18.9 3 Noroeste 6 Noroeste 0 -- -- 82
2019-08-07 07:00:00 18.4 0 Calma 6 Sudoeste 0 -- -- 82
2019-08-07 06:00:00 18.7 0 Calma 6 Sudoeste 0 -- -- 80
2019-08-07 05:00:00 19.1 0 Calma 14 Sudoeste 0 -- -- 78
2019-08-07 04:00:00 19.4 11 Sudoeste 23 Sudoeste 0 -- -- 78
2019-08-07 03:00:00 19.6 9 Noroeste 22 Noroeste 0 -- -- 78
2019-08-07 02:00:00 20.3 13 Noroeste 26 Noroeste 0 -- -- 77
2019-08-07 01:00:00 20.8 12 Noroeste 23 Noroeste 0 -- -- 75
2019-08-07 00:00:00 22.2 12 Noroeste 24 Noroeste 0 -- -- 69
2019-08-06 23:00:00 23.2 8 Noroeste 19 Noroeste 0 -- -- 65
2019-08-06 22:00:00 24.7 6 Noroeste 16 Noroeste 0 -- -- 56
2019-08-06 21:00:00 27 7 Noroeste 28 Noroeste 0 -- -- 47
2019-08-06 20:00:00 29.7 9 Noroeste 21 Noroeste 0 -- -- 31
2019-08-06 19:00:00 31 6 Noroeste 13 Noroeste 0 -- -- 26
2019-08-06 18:00:00 31.7 6 Noroeste 18 Sudoeste 0 -- -- 26
2019-08-06 17:00:00 32.8 6 Oeste 22 Sudoeste 0 -- -- 24
2019-08-06 16:00:00 32.9 6 Sudoeste 30 Oeste 0 -- -- 27
2019-08-06 15:00:00 31.1 5 Oeste 17 Noroeste 0 -- -- 29
2019-08-06 14:00:00 31 5 Sudoeste 18 Sudoeste 0 -- -- 31
2019-08-06 13:00:00 29.7 7 Sudoeste 22 Sudoeste 0 -- -- 34
2019-08-06 12:00:00 27.8 7 Sur 23 Sur 0 -- -- 37
2019-08-06 11:00:00 25.7 8 Noroeste 13 Noroeste 0 -- -- 50
2019-08-06 10:00:00 22.9 4 Noroeste 10 Norte 0 -- -- 62
2019-08-06 09:00:00 20.4 0 Calma 5 Oeste 0 -- -- 76
2019-08-06 08:00:00 16.9 2 Sur 6 Sudoeste 0 -- -- 87
2019-08-06 07:00:00 16.4 4 Sudoeste 10 Sudoeste 0 -- -- 87
2019-08-06 06:00:00 16.6 3 Sudoeste 9 Sudoeste 0 -- -- 86
2019-08-06 05:00:00 17 0 Calma 9 Sudoeste 0 -- -- 85
2019-08-06 04:00:00 17.8 2 Sudoeste 8 Noroeste 0 -- -- 83
2019-08-06 03:00:00 18.3 2 Sudoeste 8 Norte 0 -- -- 80
2019-08-06 02:00:00 18.7 4 Sudoeste 7 Oeste 0 -- -- 79
2019-08-06 01:00:00 18.9 3 Sur 8 Sur 0 -- -- 77
2019-08-06 00:00:00 20.1 0 Calma 6 Sur 0 -- -- 73
2019-08-05 23:00:00 21.3 0 Calma 6 Oeste 0 -- -- 68
2019-08-05 22:00:00 22.7 2 Oeste 19 Noroeste 0 -- -- 62
2019-08-05 21:00:00 25.1 10 Noroeste 23 Noroeste 0 -- -- 53
2019-08-05 20:00:00 28.3 9 Noroeste 23 Norte 0 -- -- 42
2019-08-05 19:00:00 32.5 6 Sudoeste 17 Sudoeste 0 -- -- 23
2019-08-05 18:00:00 32.9 6 Sudoeste 15 Oeste 0 -- -- 24
2019-08-05 17:00:00 32.6 9 Sudoeste 18 Oeste 0 -- -- 26
2019-08-05 16:00:00 33 6 Sudoeste 14 Sur 0 -- -- 28
2019-08-05 15:00:00 31.7 6 Sudoeste 26 Noroeste 0 -- -- 29
2019-08-05 14:00:00 30.1 3 Sudoeste 17 Norte 0 -- -- 35
2019-08-05 13:00:00 28.6 11 Noroeste 17 Noroeste 0 -- -- 42
2019-08-05 12:00:00 26.3 7 Noroeste 16 Noroeste 0 -- -- 46
2019-08-05 11:00:00 24.4 5 Noroeste 14 Noroeste 0 -- -- 55
2019-08-05 10:00:00 21 5 Noroeste 10 Norte 0 -- -- 73
2019-08-05 09:00:00 18.5 5 Noroeste 10 Noroeste 0 -- -- 84
2019-08-05 08:00:00 16.9 0 Calma 8 Sudoeste 0 -- -- 88
2019-08-05 07:00:00 15.9 2 Sudoeste 5 Sur 0 -- -- 88
2019-08-05 06:00:00 16.4 4 Sudoeste 7 Sudoeste 0 -- -- 87
2019-08-05 05:00:00 17.2 2 Sudoeste 4 Oeste 0 -- -- 85
2019-08-05 04:00:00 18.2 2 Sudoeste 9 Oeste 0 -- -- 84
2019-08-05 03:00:00 18.7 2 Oeste 9 Oeste 0 -- -- 81
2019-08-05 02:00:00 19.3 2 Oeste 13 Noroeste 0 -- -- 78
2019-08-05 01:00:00 19.9 7 Noroeste 14 Noroeste 0 -- -- 76
2019-08-05 00:00:00 20.5 5 Noroeste 17 Noroeste 0 -- -- 74
2019-08-04 23:00:00 21.4 5 Noroeste 16 Noroeste 0 -- -- 68
2019-08-04 22:00:00 23.3 9 Noroeste 16 Noroeste 0 -- -- 59
2019-08-04 21:00:00 25.3 6 Noroeste 24 Norte 0 -- -- 52
2019-08-04 20:00:00 27.3 13 Noroeste 33 Noroeste 0 -- -- 46
2019-08-04 19:00:00 31.3 18 Noroeste 27 Noroeste 0 -- -- 31
2019-08-04 18:00:00 33.8 9 Norte 23 Sudoeste 0 -- -- 21
2019-08-04 17:00:00 33.4 8 Sudoeste 19 Sudoeste 0 -- -- 21
2019-08-04 16:00:00 32.7 7 Sudoeste 19 Sur 0 -- -- 26
2019-08-04 15:00:00 31.8 3 Sudoeste 20 Sudoeste 0 -- -- 28
2019-08-04 14:00:00 30.4 6 Oeste 20 Sudoeste 0 -- -- 34
2019-08-04 13:00:00 28.9 10 Noroeste 20 Noroeste 0 -- -- 41
2019-08-04 12:00:00 25.5 8 Noroeste 17 Norte 0 -- -- 50
2019-08-04 11:00:00 24.8 8 Noroeste 12 Norte 0 -- -- 53
2019-08-04 10:00:00 23.8 8 Noroeste 11 Noroeste 0 -- -- 60
2019-08-04 09:00:00 20.4 5 Noroeste 11 Noroeste 0 -- -- 76
2019-08-04 08:00:00 18.9 4 Noroeste 10 Oeste 0 -- -- 84
2019-08-04 07:00:00 17.6 3 Sudoeste 6 Sudoeste 0 -- -- 84
2019-08-04 06:00:00 17.6 3 Sur 7 Sudoeste 0 -- -- 81
2019-08-04 05:00:00 18.4 4 Sudoeste 9 Sudoeste 0 -- -- 77
2019-08-04 04:00:00 19.4 5 Sudoeste 8 Sudoeste 0 -- -- 75
2019-08-04 03:00:00 20.7 3 Oeste 6 Oeste 0 -- -- 71
2019-08-04 02:00:00 20.5 5 Sudoeste 9 Sudoeste 0 -- -- 68
2019-08-04 01:00:00 21.2 4 Sudoeste 8 Sudoeste 0 -- -- 63
2019-08-04 00:00:00 22.4 3 Sudoeste 8 Sudoeste 0 -- -- 57
2019-08-03 23:00:00 24.4 2 Sur 10 Noroeste 0 -- -- 49
2019-08-03 22:00:00 26.6 3 Oeste 19 Norte 0 -- -- 44
2019-08-03 21:00:00 28 14 Noroeste 30 Noroeste 0 -- -- 42
2019-08-03 20:00:00 32.1 8 Noroeste 15 Noroeste 0 -- -- 23
2019-08-03 19:00:00 32.8 9 Noroeste 18 Noroeste 0 -- -- 21
2019-08-03 18:00:00 33.4 6 Noroeste 19 Oeste 0 -- -- 21
2019-08-03 17:00:00 33 7 Sudoeste 21 Sudoeste 0 -- -- 22
2019-08-03 16:00:00 32.6 7 Sudoeste 21 Sur 0 -- -- 24
2019-08-03 15:00:00 31.6 5 Oeste 19 Norte 0 -- -- 29
2019-08-03 14:00:00 30.3 11 Norte 17 Norte 0 -- -- 31
2019-08-03 13:00:00 28.8 6 Noroeste 13 Norte 0 -- -- 34
2019-08-03 12:00:00 26.4 4 Noroeste 10 Noroeste 0 -- -- 39
2019-08-03 11:00:00 24.1 6 Noroeste 12 Norte 0 -- -- 45
2019-08-03 10:00:00 20.7 0 Calma 6 Oeste 0 -- -- 59
2019-08-03 09:00:00 18.5 3 Sur 6 Sudoeste 0 -- -- 71
2019-08-03 08:00:00 15.6 0 Calma 6 Sur 0 -- -- 88
2019-08-03 07:00:00 14.5 0 Calma 8 Sudoeste 0 -- -- 88
2019-08-03 06:00:00 14.5 6 Sudoeste 9 Sudoeste 0 -- -- 87
2019-08-03 05:00:00 14.7 2 Sudoeste 10 Sudoeste 0 -- -- 85
2019-08-03 04:00:00 15.3 4 Sudoeste 10 Sudoeste 0 -- -- 84
2019-08-03 03:00:00 16 4 Sudoeste 8 Sudoeste 0 -- -- 81
2019-08-03 02:00:00 16.8 2 Sur 5 Sur 0 -- -- 76
2019-08-03 01:00:00 17.3 3 Sudoeste 6 Sudoeste 0 -- -- 68
2019-08-03 00:00:00 18.6 0 Calma 6 Sudoeste 0 -- -- 60
2019-08-02 23:00:00 19.9 0 Calma 13 Noroeste 0 -- -- 53
2019-08-02 22:00:00 22.3 6 Norte 21 Noroeste 0 -- -- 47
2019-08-02 21:00:00 24.6 14 Noroeste 27 Noroeste 0 -- -- 38
2019-08-02 20:00:00 27.6 10 Noroeste 23 Noroeste 0 -- -- 30
2019-08-02 19:00:00 28.7 13 Noroeste 26 Noroeste 0 -- -- 28
2019-08-02 18:00:00 29.4 13 Noroeste 24 Norte 0 -- -- 27
2019-08-02 17:00:00 29.8 9 Noroeste 25 Noroeste 0 -- -- 31
2019-08-02 16:00:00 29.6 8 Noroeste 22 Noroeste 0 -- -- 32
2019-08-02 15:00:00 28.9 10 Noroeste 22 Noroeste 0 -- -- 32
2019-08-02 14:00:00 27.8 8 Noroeste 19 Norte 0 -- -- 34
2019-08-02 13:00:00 25.8 7 Noroeste 15 Norte 0 -- -- 42
2019-08-02 12:00:00 23.1 5 Noroeste 14 Noroeste 0 -- -- 52
2019-08-02 11:00:00 22.2 6 Noroeste 13 Noroeste 0 -- -- 60
2019-08-02 10:00:00 19.9 6 Noroeste 13 Norte 0 -- -- 73
2019-08-02 09:00:00 17.6 6 Noroeste 10 Oeste 0 -- -- 81
2019-08-02 08:00:00 16.7 5 Noroeste 12 Noroeste 0 -- -- 87
2019-08-02 07:00:00 16 3 Oeste 11 Norte 0 -- -- 87
2019-08-02 06:00:00 16.4 4 Noroeste 10 Noroeste 0 -- -- 84
2019-08-02 05:00:00 16.9 4 Noroeste 15 Noroeste 0 -- -- 83
2019-08-02 04:00:00 17.4 4 Noroeste 15 Noroeste 0 -- -- 82
2019-08-02 03:00:00 17.9 5 Noroeste 19 Noroeste 0 -- -- 81
2019-08-02 02:00:00 18.4 10 Noroeste 19 Noroeste 0 -- -- 80
2019-08-02 01:00:00 18.7 12 Noroeste 21 Noroeste 0 -- -- 78
2019-08-02 00:00:00 19.2 12 Noroeste 21 Noroeste 0 -- -- 77
2019-08-01 23:00:00 19.9 10 Noroeste 22 Norte 0 -- -- 74
2019-08-01 22:00:00 20.6 13 Noroeste 25 Noroeste 0 -- -- 71
2019-08-01 21:00:00 22.3 13 Noroeste 31 Noroeste 0 -- -- 62
2019-08-01 20:00:00 24.6 15 Noroeste 31 Norte 0 -- -- 55
2019-08-01 19:00:00 28.6 10 Noroeste 18 Noroeste 0 -- -- 36
2019-08-01 18:00:00 29.7 4 Norte 14 Sur 0 -- -- 33
2019-08-01 17:00:00 28.8 8 Oeste 20 Sur 0 -- -- 33
2019-08-01 16:00:00 28.9 10 Sudoeste 23 Sudoeste 0 -- -- 33
2019-08-01 15:00:00 28.5 9 Sudoeste 19 Oeste 0 -- -- 35
2019-08-01 14:00:00 26.2 8 Noroeste 15 Norte 0 -- -- 49
2019-08-01 13:00:00 24.4 7 Noroeste 17 Oeste 0 -- -- 53
2019-08-01 12:00:00 22 11 Oeste 20 Oeste 0 -- -- 60
2019-08-01 11:00:00 19.3 2 Oeste 14 Norte 0 -- -- 72
2019-08-01 10:00:00 17.8 0 Calma 13 Sudoeste 0 -- -- 80
2019-08-01 09:00:00 16.9 7 Sudoeste 15 Sudoeste 0.2 -- -- 83
2019-08-01 08:00:00 16.1 5 Sudoeste 12 Sudoeste 0 -- -- 86
2019-08-01 07:00:00 16.1 4 Sur 11 Sur 0 -- -- 86
2019-08-01 06:00:00 16.4 0 Calma 9 Sur 0 -- -- 86
2019-08-01 05:00:00 16.4 3 Oeste 10 Sudoeste 0.3 -- -- 85
2019-08-01 04:00:00 16.4 5 Sudoeste 8 Sudoeste 0 -- -- 78
2019-08-01 03:00:00 16.6 0 Calma 8 Sudoeste 0 -- -- 76
2019-08-01 02:00:00 16.5 3 Sudoeste 6 Sudoeste 0 -- -- 75
2019-08-01 01:00:00 16.8 0 Calma 7 Sudoeste 0 -- -- 72
2019-08-01 00:00:00 17.5 3 Sur 7 Sur 0 -- -- 69
2019-07-31 23:00:00 18.7 2 Sur 9 Sudoeste 0 -- -- 62
2019-07-31 22:00:00 20.5 4 Sur 8 Sur 0 -- -- 53
2019-07-31 21:00:00 23.5 2 Noroeste 14 Noroeste 0 -- -- 45
2019-07-31 20:00:00 26.4 8 Noroeste 14 Noroeste 0 -- -- 33
2019-07-31 19:00:00 27.1 7 Noroeste 17 Norte 0 -- -- 30
2019-07-31 18:00:00 27.1 9 Noroeste 25 Norte 0 -- -- 29
2019-07-31 17:00:00 27.2 7 Sudoeste 23 Sudoeste 0 -- -- 29
2019-07-31 16:00:00 26.1 7 Oeste 20 Sudoeste 0 -- -- 31
2019-07-31 15:00:00 24.5 12 Sudoeste 23 Oeste 0 -- -- 33
2019-07-31 14:00:00 25.4 8 Noroeste 17 Noroeste 0 -- -- 34
2019-07-31 13:00:00 22.8 6 Noroeste 14 Norte 0 -- -- 39
2019-07-31 12:00:00 20.8 8 Noroeste 12 Norte 0 -- -- 44
2019-07-31 11:00:00 18.3 4 Noroeste 12 Norte 0 -- -- 51
2019-07-31 10:00:00 16.8 6 Noroeste 11 Norte 0 -- -- 58
2019-07-31 09:00:00 15.3 2 Oeste 6 Noroeste 0 -- -- 68
2019-07-31 08:00:00 12.1 0 Calma 5 Oeste 0 -- -- 84
2019-07-31 07:00:00 10.2 0 Calma 4 Oeste 0 -- -- 84
2019-07-31 06:00:00 11 0 Calma 7 Noroeste 0 -- -- 80
2019-07-31 05:00:00 11.7 5 Noroeste 10 Noroeste 0 -- -- 79
2019-07-31 04:00:00 12.8 4 Noroeste 13 Noroeste 0 -- -- 73
2019-07-31 03:00:00 13.4 5 Noroeste 15 Noroeste 0 -- -- 71
2019-07-31 02:00:00 14 5 Noroeste 19 Sudoeste 0 -- -- 68
2019-07-31 01:00:00 14.4 11 Sudoeste 23 Sudoeste 0 -- -- 66
2019-07-31 00:00:00 14.9 10 Sudoeste 28 Sudoeste 0 -- -- 63
2019-07-30 23:00:00 15.4 17 Sudoeste 31 Sudoeste 0 -- -- 61
2019-07-30 22:00:00 15.9 19 Sudoeste 37 Sudoeste 0 -- -- 59
2019-07-30 21:00:00 16.8 16 Noroeste 33 Sudoeste 0 -- -- 56
2019-07-30 20:00:00 18.8 19 Noroeste 35 Noroeste 0 -- -- 49
2019-07-30 19:00:00 20.2 21 Noroeste 38 Noroeste 0 -- -- 46
2019-07-30 18:00:00 21.1 23 Noroeste 38 Noroeste 0 -- -- 44
2019-07-30 17:00:00 21.8 19 Noroeste 39 Noroeste 0 -- -- 42
2019-07-30 16:00:00 21.5 20 Noroeste 38 Noroeste 0 -- -- 44
2019-07-30 15:00:00 22.1 18 Noroeste 39 Norte 0 -- -- 43
2019-07-30 14:00:00 21.6 18 Noroeste 36 Norte 0 -- -- 45
2019-07-30 13:00:00 21.3 18 Noroeste 36 Noroeste 0 -- -- 47
2019-07-30 12:00:00 19.8 19 Noroeste 38 Noroeste 0 -- -- 52
2019-07-30 11:00:00 18.7 18 Noroeste 41 Norte 0 -- -- 55
2019-07-30 10:00:00 17.5 19 Noroeste 32 Noroeste 0 -- -- 61
2019-07-30 09:00:00 16.5 17 Noroeste 28 Noroeste 0 -- -- 65
2019-07-30 08:00:00 15.4 16 Noroeste 34 Noroeste 0 -- -- 70
2019-07-30 07:00:00 15.1 15 Noroeste 33 Noroeste 0 -- -- 69
2019-07-30 06:00:00 15.6 21 Noroeste 35 Noroeste 0 -- -- 74
2019-07-30 05:00:00 15.5 16 Noroeste 32 Noroeste 0 -- -- 73
2019-07-30 04:00:00 15.7 16 Noroeste 32 Sudoeste 0 -- -- 74
2019-07-30 03:00:00 16.4 16 Noroeste 37 Sudoeste 0 -- -- 74
2019-07-30 02:00:00 16.6 15 Noroeste 31 Noroeste 0 -- -- 73
2019-07-30 01:00:00 17 13 Noroeste 37 Noroeste 0 -- -- 71
2019-07-30 00:00:00 17.3 18 Noroeste 36 Sudoeste 0 -- -- 71
2019-07-29 23:00:00 17.8 16 Sudoeste 32 Noroeste 0 -- -- 71
2019-07-29 22:00:00 19.1 14 Noroeste 31 Noroeste 0 -- -- 67
2019-07-29 21:00:00 20.5 14 Noroeste 39 Noroeste 0 -- -- 63
2019-07-29 20:00:00 22.3 22 Noroeste 40 Noroeste 0 -- -- 55
2019-07-29 19:00:00 26.5 16 Noroeste 33 Noroeste 0 -- -- 41
2019-07-29 18:00:00 29.7 9 Oeste 21 Sudoeste 0 -- -- 22
2019-07-29 17:00:00 30.3 5 Oeste 22 Oeste 0 -- -- 24
2019-07-29 16:00:00 29.6 12 Sudoeste 27 Sur 0 -- -- 24
2019-07-29 15:00:00 29.5 4 Oeste 22 Sudoeste 0 -- -- 25
2019-07-29 14:00:00 28.6 7 Sudoeste 20 Sudoeste 0 -- -- 27
2019-07-29 13:00:00 27.3 7 Sudoeste 19 Sur 0 -- -- 30
2019-07-29 12:00:00 25.7 5 Noroeste 12 Norte 0 -- -- 36
2019-07-29 11:00:00 22.4 4 Noroeste 9 Norte 0 -- -- 43
2019-07-29 10:00:00 20.4 4 Noroeste 7 Norte 0 -- -- 48
2019-07-29 09:00:00 18.4 2 Noroeste 4 Noroeste 0 -- -- 55
2019-07-29 08:00:00 14.3 0 Calma 4 Sudoeste 0 -- -- 66
2019-07-29 07:00:00 11.4 2 Sudoeste 5 Sudoeste 0 -- -- 73
2019-07-29 06:00:00 11.6 0 Calma 8 Sudoeste 0 -- -- 71
2019-07-29 05:00:00 11.6 3 Sur 7 Sudoeste 0 -- -- 66
2019-07-29 04:00:00 11.9 0 Calma 5 Sur 0 -- -- 67
2019-07-29 03:00:00 12.5 2 Sudoeste 7 Sudoeste 0 -- -- 67
2019-07-29 02:00:00 13 3 Sudoeste 11 Sudoeste 0 -- -- 71
2019-07-29 01:00:00 13.4 4 Sudoeste 10 Sudoeste 0 -- -- 68
2019-07-29 00:00:00 14.5 6 Sudoeste 9 Sudoeste 0 -- -- 65
2019-07-28 23:00:00 17.2 0 Calma 15 Noroeste 0 -- -- 56
2019-07-28 22:00:00 18.7 9 Noroeste 27 Norte 0 -- -- 50
2019-07-28 21:00:00 19.9 14 Noroeste 28 Noroeste 0 -- -- 45
2019-07-28 20:00:00 21.2 18 Noroeste 32 Noroeste 0 -- -- 40
2019-07-28 19:00:00 22 17 Noroeste 32 Noroeste 0 -- -- 38
2019-07-28 18:00:00 22.8 14 Noroeste 31 Noroeste 0 -- -- 36
2019-07-28 17:00:00 22.6 16 Noroeste 34 Noroeste 0 -- -- 37
2019-07-28 16:00:00 22.6 16 Noroeste 32 Noroeste 0 -- -- 37
2019-07-28 15:00:00 22.7 17 Noroeste 32 Noroeste 0 -- -- 37
2019-07-28 14:00:00 22.2 16 Noroeste 35 Norte 0 -- -- 41
2019-07-28 13:00:00 21.1 15 Noroeste 30 Noroeste 0 -- -- 45
2019-07-28 12:00:00 20 15 Noroeste 35 Noroeste 0 -- -- 50
2019-07-28 11:00:00 18.5 15 Noroeste 32 Sudoeste 0 -- -- 55
2019-07-28 10:00:00 17.7 16 Noroeste 26 Norte 0 -- -- 61
2019-07-28 09:00:00 15.6 13 Noroeste 22 Noroeste 0 -- -- 69
2019-07-28 08:00:00 14.7 12 Noroeste 24 Noroeste 0 -- -- 74
2019-07-28 07:00:00 13.5 8 Noroeste 23 Norte 0 -- -- 84
2019-07-28 06:00:00 14.1 9 Noroeste 18 Noroeste 0 -- -- 82
2019-07-28 05:00:00 13.8 10 Noroeste 24 Norte 0 -- -- 83
2019-07-28 04:00:00 14.2 18 Noroeste 37 Noroeste 0 -- -- 79
2019-07-28 03:00:00 14.3 21 Noroeste 33 Noroeste 0 -- -- 78
2019-07-28 02:00:00 14.4 18 Noroeste 28 Noroeste 0 -- -- 78
2019-07-28 01:00:00 14.4 14 Noroeste 25 Noroeste 0 -- -- 76
2019-07-28 00:00:00 14.7 12 Noroeste 26 Noroeste 0 -- -- 72
2019-07-27 23:00:00 15 12 Noroeste 35 Noroeste 0 -- -- 68
2019-07-26 12:00:00 19.9 9 Sudoeste 31 Sudoeste 0.3 -- -- 66
2019-07-26 11:00:00 20.6 4 Noroeste 22 Oeste 0.3 -- -- 82
2019-07-26 10:00:00 20 2 Oeste 9 Norte 0.4 -- -- 84
2019-07-26 09:00:00 20.5 3 Noroeste 8 Norte 0 -- -- 83
2019-07-26 08:00:00 19.6 3 Oeste 16 Noroeste 0 -- -- 84
2019-07-26 07:00:00 19.4 3 Noroeste 14 Noroeste 0.4 -- -- 84
2019-07-26 06:00:00 19.8 4 Noroeste 14 Norte 0 -- -- 84
2019-07-26 05:00:00 19.3 0 Calma 6 Sur 0 -- -- 82
2019-07-26 04:00:00 20.6 0 Calma 9 Noroeste 0 -- -- 78
2019-07-26 03:00:00 21.4 3 Noroeste 9 Noroeste 0 -- -- 75
2019-07-26 02:00:00 21.9 0 Calma 10 Noroeste 0 -- -- 71
2019-07-26 01:00:00 24.2 6 Noroeste 24 Sudoeste 0 -- -- 52
2019-07-26 00:00:00 26 13 Sudoeste 31 Sur 0.7 -- -- 42
2019-07-25 23:00:00 27.4 13 Sur 29 Sur 0.1 -- -- 29
2019-07-25 22:00:00 29.7 18 Sudoeste 33 Sudoeste 0 -- -- 28
2019-07-25 21:00:00 30.5 16 Sudoeste 40 Sudoeste 0 -- -- 25
2019-07-25 20:00:00 30.1 11 Sur 27 Sur 0 -- -- 25
2019-07-25 19:00:00 30.5 17 Sur 42 Sudoeste 0 -- -- 25
2019-07-25 18:00:00 34.3 14 Sur 33 Sudoeste 0 -- -- 20
2019-07-25 17:00:00 34.4 17 Sudoeste 34 Sur 0 -- -- 20
2019-07-25 16:00:00 34 19 Sudoeste 34 Sur 0 -- -- 20
2019-07-25 15:00:00 33.8 15 Sur 30 Sur 0 -- -- 23
2019-07-25 14:00:00 33.1 15 Sudoeste 30 Sudoeste -- -- -- 24
2019-07-25 13:00:00 32.6 13 Sudoeste 28 Sur 0 -- -- 42
2019-07-25 12:00:00 -- 14 Sudoeste -- -- -- -- -- 58
2019-07-25 11:00:00 31.3 11 Sur 22 Sur -- -- -- 45
2019-07-25 10:00:00 -- 2 Oeste 8 Norte 0 -- -- --
2019-07-25 09:00:00 28.5 0 Calma 5 Norte 0 -- -- 47
2019-07-25 08:00:00 -- 0 Calma 10 Noroeste 0 -- -- --
2019-07-25 07:00:00 -- 3 Sudoeste 7 Sudoeste 0 -- -- --
2019-07-25 06:00:00 -- 0 Calma 11 Noroeste 0 -- -- --
2019-07-25 05:00:00 -- 4 Sudoeste 16 Sudoeste 0 -- -- --
2019-07-25 04:00:00 -- 7 Sur 15 Sur 0 -- -- --
2019-07-25 03:00:00 -- 4 Sudoeste 20 Sudoeste 0 -- -- --
2019-07-25 02:00:00 28.2 6 Noroeste 35 Sudoeste 0 -- -- 40
2019-07-25 01:00:00 -- 11 Sur 38 Sur 0 -- -- --
2019-07-25 00:00:00 29.6 17 Sur 38 Sudoeste 0 -- -- 37
2019-07-24 23:00:00 30 17 Sur 37 Sur 0 -- -- 37
2019-07-24 22:00:00 -- 10 Sudoeste 21 Sur 0 -- -- --
2019-07-24 21:00:00 31.5 8 Sur 30 Sudoeste 0 -- -- 33
2019-07-24 20:00:00 33.5 14 Sudoeste 31 Sudoeste 0 -- -- 30
2019-07-24 19:00:00 34.8 14 Sudoeste 32 Oeste 0 -- -- 28
2019-07-24 18:00:00 35.5 12 Sudoeste 34 Sudoeste 0 -- -- 29
2019-07-24 17:00:00 35.1 13 Sudoeste 28 Sudoeste 0 -- -- 29
2019-07-24 16:00:00 35.3 14 Sudoeste 28 Sudoeste 0 -- -- 30
2019-07-24 15:00:00 35.6 9 Sudoeste 31 Sudoeste 0 -- -- 31
2019-07-24 14:00:00 33.7 8 Sudoeste 22 Sudoeste 0 -- -- 33
2019-07-24 13:00:00 33.1 10 Sur 24 Sudoeste 0 -- -- 36
2019-07-24 12:00:00 31.2 12 Sudoeste 27 Sudoeste 0 -- -- 38
2019-07-24 11:00:00 29.6 8 Norte 17 Noroeste 0 -- -- 47
2019-07-24 10:00:00 28.1 6 Noroeste 9 Noroeste 0 -- -- 51
2019-07-24 09:00:00 -- 0 Calma 5 Oeste 0 -- -- --
2019-07-24 08:00:00 -- 0 Calma 7 Sur 0 -- -- --
2019-07-24 07:00:00 -- 3 Noroeste 7 Noroeste 0 -- -- --
2019-07-24 06:00:00 -- 0 Calma 7 Norte 0 -- -- --
2019-07-24 05:00:00 -- 4 Sudoeste 13 Sudoeste 0 -- -- --
2019-07-24 04:00:00 -- 6 Sur 10 Sudoeste 0 -- -- --
2019-07-24 03:00:00 23.4 2 Sudoeste 13 Sur 0 -- -- 52
2019-07-24 02:00:00 25.4 3 Noroeste 41 Sudoeste 0 -- -- 48
2019-07-24 01:00:00 24.5 4 Sur 10 Sur 0 -- -- 48
2019-07-24 00:00:00 26.3 4 Noroeste 17 Noroeste 0 -- -- 44
2019-07-23 23:00:00 26.8 4 Oeste 29 Noroeste 0 -- -- 41
2019-07-23 22:00:00 29.5 18 Noroeste 35 Noroeste 0 -- -- 33
2019-07-23 21:00:00 31.6 7 Sudoeste 27 Sudoeste 0 -- -- 30
2019-07-23 20:00:00 34 13 Sudoeste 27 Sur 0 -- -- 28
2019-07-23 19:00:00 34.9 10 Sudoeste 22 Sudoeste 0 -- -- 27
2019-07-23 18:00:00 35.7 8 Sudoeste 30 Sur 0 -- -- 27
2019-07-23 17:00:00 35.1 14 Sudoeste 36 Sur 0 -- -- 27
2019-07-23 16:00:00 35.5 16 Sudoeste 33 Sudoeste 0 -- -- 27
2019-07-23 15:00:00 35.2 13 Sudoeste 32 Sur 0 -- -- 28
2019-07-23 14:00:00 34.5 14 Sur 28 Sudoeste 0 -- -- 29
2019-07-23 13:00:00 33.9 11 Sudoeste 31 Sudoeste 0 -- -- 29
2019-07-23 12:00:00 32.7 10 Sudoeste 23 Sudoeste 0 -- -- 31
2019-07-23 11:00:00 31.2 12 Sur 23 Sudoeste 0 -- -- 33
2019-07-23 10:00:00 30.7 4 Sudoeste 11 Sur 0 -- -- 36
2019-07-23 09:00:00 27.1 0 Calma 8 Sudoeste 0 -- -- 44
2019-07-23 08:00:00 23.4 3 Sudoeste 7 Sudoeste 0 -- -- 48
2019-07-23 07:00:00 -- 4 Sur 13 Sudoeste 0 -- -- --
2019-07-23 06:00:00 22.2 3 Sudoeste 7 Sur 0 -- -- 43
2019-07-23 05:00:00 23.5 0 Calma 5 Sur 0 -- -- 41
2019-07-23 04:00:00 24.6 0 Calma 14 Sur 0 -- -- 40
2019-07-23 03:00:00 25.8 8 Sudoeste 22 Oeste 0.1 -- -- 41
2019-07-23 02:00:00 25.1 5 Sur 12 Oeste 0 -- -- 39
2019-07-23 01:00:00 27 4 Sudoeste 12 Oeste 0 -- -- 37
2019-07-23 00:00:00 28 3 Noroeste 27 Oeste 0 -- -- 35
2019-07-22 23:00:00 29.3 10 Sudoeste 28 Sudoeste 0 -- -- 32
2019-07-22 22:00:00 29.4 7 Sudoeste 18 Sudoeste 0 -- -- 33
2019-07-22 21:00:00 31.6 4 Sudoeste 19 Sudoeste 0 -- -- 29
2019-07-22 20:00:00 33.2 12 Sudoeste 24 Sudoeste 0 -- -- 27
2019-07-22 19:00:00 34.2 9 Sudoeste 28 Sur 0 -- -- 26
2019-07-22 18:00:00 34.8 12 Sur 30 Sur 0 -- -- 25
2019-07-22 17:00:00 35.2 7 Sudoeste 27 Sur 0 -- -- 25
2019-07-22 16:00:00 34.6 12 Sur 27 Sur 0 -- -- 27
2019-07-22 15:00:00 34.4 10 Sudoeste 27 Sudoeste 0 -- -- 29
2019-07-22 14:00:00 33.4 12 Sur 25 Sur 0 -- -- 30
2019-07-22 13:00:00 32.5 9 Sur 22 Sur 0 -- -- 32
2019-07-22 12:00:00 31 5 Oeste 14 Noroeste 0 -- -- 44
2019-07-22 11:00:00 27.4 4 Noroeste 9 Noroeste 0 -- -- 59
2019-07-22 10:00:00 26 5 Noroeste 9 Noroeste 0 -- -- 67
2019-07-22 09:00:00 24 2 Oeste 5 Oeste 0 -- -- 75
2019-07-22 08:00:00 20.2 0 Calma 9 Noroeste 0 -- -- 87
2019-07-22 07:00:00 18 2 Oeste 7 Sudoeste 0 -- -- 87
2019-07-22 06:00:00 -- 0 Calma 7 Sudoeste 0 -- -- --
2019-07-22 05:00:00 19.1 0 Calma 11 Sur 0 -- -- 81
2019-07-22 04:00:00 19.5 3 Sudoeste 8 Sudoeste 0 -- -- 82
2019-07-22 03:00:00 20.3 3 Sudoeste 10 Noroeste 0 -- -- 86
2019-07-22 02:00:00 22.4 4 Noroeste 14 Sudoeste 0 -- -- 78
2019-07-22 01:00:00 21.4 5 Sur 10 Sudoeste 0 -- -- 84
2019-07-22 00:00:00 23 2 Noroeste 16 Noroeste 0 -- -- 77
2019-07-21 23:00:00 23.8 4 Noroeste 17 Norte 0 -- -- 73
2019-07-21 22:00:00 25.7 4 Noroeste 14 Noroeste 0 -- -- 62
2019-07-21 21:00:00 28.5 10 Noroeste 17 Noroeste 0 -- -- 48
2019-07-21 20:00:00 31.4 5 Sur 19 Sur 0 -- -- 37
2019-07-21 19:00:00 32.2 9 Sur 19 Sur 0 -- -- 34
2019-07-21 18:00:00 32.6 10 Sur 23 Sudoeste 0 -- -- 33
2019-07-21 17:00:00 32.6 9 Sur 23 Sudoeste 0 -- -- 34
2019-07-21 16:00:00 32.7 9 Sudoeste 22 Sur 0 -- -- 36
2019-07-21 15:00:00 31 11 Sur 23 Sur 0 -- -- 38
2019-07-21 14:00:00 29.4 8 Sudoeste 25 Oeste 0 -- -- 43
2019-07-21 13:00:00 28.1 11 Sur 24 Sudoeste 0 -- -- 43
2019-07-21 12:00:00 28 9 Noroeste 19 Noroeste 0 -- -- 52
2019-07-21 11:00:00 23.9 2 Noroeste 10 Noroeste 0 -- -- 70
2019-07-21 10:00:00 22 5 Noroeste 12 Noroeste 0 -- -- 77
2019-07-21 09:00:00 21 4 Noroeste 7 Noroeste 0 -- -- 86
2019-07-21 08:00:00 16.9 0 Calma 6 Sur 0 -- -- 98
2019-07-21 07:00:00 16 6 Sudoeste 10 Sudoeste 0 -- -- 98
2019-07-21 06:00:00 -- 2 Sudoeste 8 Oeste 0 -- -- --
2019-07-21 05:00:00 16.8 5 Sudoeste 13 Noroeste 0 -- -- 97
2019-07-21 04:00:00 16.8 0 Calma 5 Sudoeste 0 -- -- 96
2019-07-21 03:00:00 18.2 0 Calma 17 Noroeste 0 -- -- 92
2019-07-21 02:00:00 19.1 8 Noroeste 16 Noroeste 0 -- -- 90
2019-07-21 01:00:00 -- 2 Noroeste 15 Noroeste 0 -- -- --
2019-07-21 00:00:00 20.7 8 Noroeste 14 Noroeste 0 -- -- 85
2019-07-20 23:00:00 21.6 6 Noroeste 16 Noroeste 0 -- -- 80
2019-07-20 22:00:00 22.8 10 Noroeste 23 Norte 0 -- -- 75
2019-07-20 21:00:00 23.8 5 Noroeste 26 Noroeste 0 -- -- 71
2019-07-20 20:00:00 25.5 10 Noroeste 30 Norte 0 -- -- 65
2019-07-20 19:00:00 -- 17 Noroeste 27 Norte 0 -- -- --
2019-07-20 18:00:00 33.2 5 Noroeste 23 Norte 0 -- -- 36
2019-07-20 17:00:00 33.4 9 Oeste 19 Sur 0 -- -- 34
2019-07-20 16:00:00 33 4 Oeste 19 Sur 0 -- -- 35
2019-07-20 15:00:00 32.3 4 Sudoeste 25 Sur 0 -- -- 37
2019-07-20 14:00:00 30.9 12 Sur 23 Sudoeste 0 -- -- 41
2019-07-20 13:00:00 29.9 10 Sudoeste 21 Sudoeste 0 -- -- 44
2019-07-20 12:00:00 28.2 5 Oeste 14 Oeste 0 -- -- 52
2019-07-20 11:00:00 26 4 Noroeste 11 Noroeste 0 -- -- 58
2019-07-20 10:00:00 23.5 6 Noroeste 11 Noroeste 0.1 -- -- 67
2019-07-20 09:00:00 22.6 3 Noroeste 6 Noroeste 0 -- -- 74
2019-07-20 08:00:00 19.5 3 Sudoeste 6 Sur 0 -- -- 81
2019-07-20 07:00:00 19 0 Calma 10 Sudoeste 0 -- -- 75
2019-07-20 06:00:00 20.4 4 Sur 14 Sudoeste 0 -- -- 73
2019-07-20 05:00:00 19.6 5 Sur 12 Noroeste 0 -- -- 77
2019-07-20 04:00:00 20.6 5 Sudoeste 15 Sur 0 -- -- 77
2019-07-20 03:00:00 20.9 5 Sur 14 Oeste 0 -- -- 79
2019-07-20 02:00:00 20.5 4 Sudoeste 17 Sur 0 -- -- 83
2019-07-20 01:00:00 22.6 5 Sudoeste 34 Sur 0.1 -- -- 66
2019-07-20 00:00:00 26.2 15 Sudoeste 39 Sur 0 -- -- 50
2019-07-19 23:00:00 26.6 18 Sur 35 Sudoeste 0 -- -- 44
2019-07-19 22:00:00 27.1 17 Sur 32 Sur 0 -- -- 41
2019-07-19 21:00:00 28.4 15 Sur 30 Sur 0 -- -- 38
2019-07-19 20:00:00 30 10 Sur 21 Sudoeste 0 -- -- 35
2019-07-19 19:00:00 31.2 8 Sur 18 Sur 0 -- -- 33
2019-07-19 18:00:00 31.7 7 Sudoeste 19 Sur 0 -- -- 32
2019-07-19 17:00:00 31.7 6 Sudoeste 22 Sudoeste 0 -- -- 33
2019-07-19 16:00:00 30.9 9 Sudoeste 24 Sudoeste 0 -- -- 35
2019-07-19 15:00:00 30.4 10 Sudoeste 21 Sudoeste 0 -- -- 37
2019-07-19 14:00:00 29 5 Sudoeste 18 Sudoeste 0 -- -- 44
2019-07-19 13:00:00 27.2 7 Noroeste 14 Norte 0 -- -- 48
2019-07-19 12:00:00 -- 7 Noroeste 28 Nordeste 0 -- -- --
2019-07-19 11:00:00 23 5 Noroeste 12 Noroeste 0 -- -- 58
2019-07-19 10:00:00 20.4 3 Noroeste 8 Noroeste 0 -- -- 67
2019-07-19 09:00:00 18.4 3 Noroeste 5 Norte 0 -- -- 76
2019-07-19 08:00:00 15 0 Calma 8 Sudoeste 0 -- -- 96
2019-07-19 07:00:00 11.7 4 Sudoeste 10 Sudoeste 0 -- -- 96
2019-07-19 06:00:00 11.9 3 Sudoeste 4 Sudoeste 0 -- -- 92
2019-07-19 05:00:00 13.2 0 Calma 3 Sudoeste 0 -- -- 87
2019-07-19 04:00:00 14.8 0 Calma 14 Noroeste 0 -- -- 81
2019-07-19 03:00:00 15.8 6 Noroeste 12 Noroeste 0 -- -- 77
2019-07-19 02:00:00 16.5 5 Noroeste 21 Noroeste 0 -- -- 74
2019-07-19 01:00:00 16.8 8 Noroeste 14 Noroeste 0 -- -- 74
2019-07-19 00:00:00 17.7 3 Noroeste 21 Noroeste 0 -- -- 70